Time;durP1;ratioP1;P1;durP2;ratioP2;P2;SDS_P1;SDS_P2;PMS_P1;PMS_P2;Temp;Humidity;BMP_temperature;BMP_pressure;BME280_temperature;BME280_humidity;BME280_pressure;Samples;Min_cycle;Max_cycle;Signal;HPM_P1;HPM_P2
2024/01/15 00:01:56;;;;;;;1.10;1.00;;;1.20;99.90;;;;;;5155292;27;20035;-72
2024/01/15 00:04:25;;;;;;;1.10;1.00;;;1.20;99.90;;;;;;5155238;27;20454;-73
2024/01/15 00:06:50;;;;;;;1.13;1.02;;;1.20;99.90;;;;;;5155276;27;20151;-72
2024/01/15 00:09:16;;;;;;;1.10;1.00;;;1.20;99.90;;;;;;5155026;27;20119;-72
2024/01/15 00:11:42;;;;;;;1.30;1.20;;;1.20;99.90;;;;;;5155118;27;20038;-72
2024/01/15 00:14:08;;;;;;;1.20;1.10;;;1.20;99.90;;;;;;5155133;27;20085;-71
2024/01/15 00:16:34;;;;;;;1.10;1.00;;;1.20;99.90;;;;;;5155463;27;20505;-72
2024/01/15 00:18:59;;;;;;;1.10;1.00;;;1.20;99.90;;;;;;5155164;27;20126;-72
2024/01/15 00:21:25;;;;;;;1.10;1.00;;;1.20;99.90;;;;;;5155022;27;20043;-72
2024/01/15 00:23:51;;;;;;;1.20;1.10;;;1.20;99.90;;;;;;5155230;27;20039;-72
2024/01/15 00:26:16;;;;;;;1.20;1.10;;;1.10;99.90;;;;;;5155785;27;20043;-73
2024/01/15 00:28:42;;;;;;;1.20;1.10;;;1.20;99.90;;;;;;5160122;27;20043;-72
2024/01/15 00:31:08;;;;;;;1.30;1.20;;;1.20;99.90;;;;;;5159468;27;20039;-72
2024/01/15 00:33:34;;;;;;;1.20;1.10;;;1.20;99.90;;;;;;5158971;27;20390;-71
2024/01/15 00:35:59;;;;;;;1.20;1.10;;;1.20;99.90;;;;;;5158929;27;20042;-70
2024/01/15 00:38:25;;;;;;;1.10;1.00;;;1.30;99.90;;;;;;5158977;27;20045;-71
2024/01/15 00:40:50;;;;;;;1.20;1.10;;;1.20;99.90;;;;;;5158519;27;20050;-71
2024/01/15 00:43:18;;;;;;;1.13;1.02;;;1.20;99.90;;;;;;5140056;27;20122;-74
2024/01/15 00:45:43;;;;;;;1.10;1.00;;;1.20;99.90;;;;;;5159299;27;20046;-70
2024/01/15 00:48:09;;;;;;;1.10;1.00;;;1.30;99.90;;;;;;5159153;27;20042;-71
2024/01/15 00:50:35;;;;;;;1.10;1.00;;;1.30;99.90;;;;;;5158355;27;20114;-74
2024/01/15 00:53:00;;;;;;;1.20;1.10;;;1.50;99.90;;;;;;5158657;27;20038;-72
2024/01/15 00:55:27;;;;;;;1.10;1.00;;;1.30;99.90;;;;;;5158210;27;20085;-71
2024/01/15 00:57:52;;;;;;;1.10;1.00;;;1.30;99.90;;;;;;5158472;27;20043;-71
2024/01/15 01:00:18;;;;;;;1.20;1.10;;;1.30;99.90;;;;;;5158426;27;20527;-71
2024/01/15 01:02:43;;;;;;;1.10;1.00;;;1.30;99.90;;;;;;5158360;27;20079;-71
2024/01/15 01:05:09;;;;;;;1.10;1.00;;;1.30;99.90;;;;;;5158385;27;20386;-71
2024/01/15 01:07:35;;;;;;;1.20;1.10;;;1.30;99.90;;;;;;5158256;27;20159;-72
2024/01/15 01:10:00;;;;;;;1.10;1.00;;;1.40;99.90;;;;;;5158414;27;20049;-71
2024/01/15 01:12:26;;;;;;;1.10;1.00;;;1.40;99.90;;;;;;5158187;27;20035;-72
2024/01/15 01:14:51;;;;;;;1.10;1.00;;;1.40;99.90;;;;;;5158151;27;20122;-71
2024/01/15 01:17:17;;;;;;;1.17;1.08;;;1.40;99.90;;;;;;5158161;27;20379;-71
2024/01/15 01:19:43;;;;;;;1.10;1.00;;;1.40;99.90;;;;;;5158092;27;20078;-71
2024/01/15 01:22:08;;;;;;;1.20;1.10;;;1.40;99.90;;;;;;5158066;27;20122;-71
2024/01/15 01:24:34;;;;;;;1.10;1.00;;;1.40;99.90;;;;;;5158103;27;20035;-71
2024/01/15 01:26:59;;;;;;;1.10;1.00;;;1.50;99.90;;;;;;5157875;27;20084;-71
2024/01/15 01:29:26;;;;;;;1.10;1.00;;;1.50;99.90;;;;;;5157928;27;20046;-73
2024/01/15 01:31:51;;;;;;;1.10;1.00;;;1.50;99.90;;;;;;5157837;27;20482;-72
2024/01/15 01:34:17;;;;;;;1.10;1.00;;;1.50;99.90;;;;;;5157883;27;20035;-72
2024/01/15 01:36:43;;;;;;;1.10;1.00;;;1.50;99.90;;;;;;5157687;27;20043;-71
2024/01/15 01:39:09;;;;;;;1.10;1.00;;;1.50;99.90;;;;;;5157645;27;20394;-71
2024/01/15 01:41:35;;;;;;;1.10;1.00;;;1.50;99.90;;;;;;5157581;27;20039;-71
2024/01/15 01:44:00;;;;;;;1.10;1.00;;;1.50;99.90;;;;;;5157631;27;20071;-71
2024/01/15 01:46:27;;;;;;;1.10;1.00;;;1.50;99.90;;;;;;5157915;27;20043;-70
2024/01/15 01:48:54;;;;;;;;;;;1.50;99.90;;;;;;5157918;27;20446;-72
2024/01/15 01:51:22;;;;;;;1.10;1.00;;;1.50;99.90;;;;;;5157701;27;20018;-71
2024/01/15 01:53:49;;;;;;;1.10;1.00;;;1.50;99.90;;;;;;5157329;27;20035;-71
2024/01/15 01:56:15;;;;;;;;;;;1.40;99.90;;;;;;5157761;27;20043;-72
2024/01/15 01:58:41;;;;;;;1.10;1.00;;;1.50;99.90;;;;;;5157754;27;20429;-71
2024/01/15 02:01:07;;;;;;;1.20;1.10;;;1.40;99.90;;;;;;5157453;27;20062;-71
2024/01/15 02:03:32;;;;;;;5.95;2.78;;;1.40;99.90;;;;;;5157500;27;20125;-71
2024/01/15 02:06:00;;;;;;;1.10;1.00;;;1.40;99.90;;;;;;5157214;27;20043;-71
2024/01/15 02:08:26;;;;;;;1.10;1.00;;;1.40;99.90;;;;;;5156832;27;20375;-70
2024/01/15 02:10:51;;;;;;;1.10;1.00;;;1.40;99.90;;;;;;5156737;27;20053;-72
2024/01/15 02:13:18;;;;;;;1.10;1.00;;;1.40;99.90;;;;;;5157005;27;20614;-70
2024/01/15 02:15:44;;;;;;;1.20;1.10;;;1.40;99.90;;;;;;5156959;27;20038;-73
2024/01/15 02:18:09;;;;;;;1.10;1.00;;;1.30;99.90;;;;;;5156921;27;20154;-71
2024/01/15 02:20:36;;;;;;;1.10;1.00;;;1.30;99.90;;;;;;5156916;27;20042;-71
2024/01/15 02:23:12;;;;;;;1.10;1.00;;;1.30;99.90;;;;;;5156593;27;20477;-73
2024/01/15 02:25:40;;;;;;;1.10;1.00;;;1.30;99.90;;;;;;5156760;27;20045;-71
2024/01/15 02:28:07;;;;;;;3.83;3.38;;;1.30;99.90;;;;;;5156455;27;20389;-71
2024/01/15 02:30:38;;;;;;;1.17;1.08;;;1.20;99.90;;;;;;5156475;27;20469;-73
2024/01/15 02:33:03;;;;;;;1.10;1.00;;;1.20;99.90;;;;;;5156722;27;20081;-70
2024/01/15 02:35:29;;;;;;;1.10;1.00;;;1.20;99.90;;;;;;5156883;27;20090;-72
2024/01/15 02:37:54;;;;;;;1.10;1.00;;;1.20;99.90;;;;;;5156454;27;20504;-71
2024/01/15 02:40:20;;;;;;;1.20;1.10;;;1.20;99.90;;;;;;5156495;27;20043;-71
2024/01/15 02:42:46;;;;;;;3.17;1.40;;;1.10;99.90;;;;;;5156481;27;20070;-73
2024/01/15 02:45:11;;;;;;;1.10;1.00;;;1.10;99.90;;;;;;5156404;27;20386;-71
2024/01/15 02:47:37;;;;;;;1.15;1.05;;;1.10;99.90;;;;;;5156426;27;20046;-70
2024/01/15 02:50:02;;;;;;;4.03;1.13;;;1.10;99.90;;;;;;5155775;27;20522;-70
2024/01/15 02:52:28;;;;;;;1.10;1.00;;;1.10;99.90;;;;;;5156400;27;20050;-70
2024/01/15 02:54:54;;;;;;;1.10;1.00;;;1.10;99.90;;;;;;5156066;27;20484;-73
2024/01/15 02:57:19;;;;;;;1.10;1.00;;;1.10;99.90;;;;;;5156193;27;20455;-71
2024/01/15 02:59:45;;;;;;;3.67;3.42;;;1.10;99.90;;;;;;5156506;27;20047;-71
2024/01/15 03:02:10;;;;;;;1.20;1.10;;;1.10;99.90;;;;;;5156401;27;20042;-70
2024/01/15 03:04:36;;;;;;;1.20;1.10;;;1.10;99.90;;;;;;5156091;27;20039;-72
2024/01/15 03:07:01;;;;;;;1.20;1.10;;;1.10;99.90;;;;;;5156070;27;20042;-71
2024/01/15 03:09:27;;;;;;;1.20;1.10;;;1.10;99.90;;;;;;5155867;27;20115;-71
2024/01/15 03:11:53;;;;;;;1.38;1.27;;;1.20;99.90;;;;;;5156411;27;20042;-72
2024/01/15 03:14:20;;;;;;;1.10;1.00;;;1.20;99.90;;;;;;5155818;27;20038;-71
2024/01/15 03:16:45;;;;;;;1.13;1.02;;;1.20;99.90;;;;;;5156125;27;20041;-71
2024/01/15 03:19:11;;;;;;;1.17;1.08;;;1.20;99.90;;;;;;5137580;27;20043;-70
2024/01/15 03:21:37;;;;;;;1.20;1.10;;;1.20;99.90;;;;;;5155800;27;20047;-71
2024/01/15 03:24:02;;;;;;;1.10;1.00;;;1.30;99.90;;;;;;5155686;27;20139;-70
2024/01/15 03:26:28;;;;;;;1.10;1.00;;;1.30;99.90;;;;;;5155626;27;20058;-71
2024/01/15 03:28:53;;;;;;;1.10;1.00;;;1.30;99.90;;;;;;5155626;27;20386;-72
2024/01/15 03:31:19;;;;;;;1.20;1.10;;;1.30;99.90;;;;;;5155522;27;20130;-73
2024/01/15 03:33:45;;;;;;;1.20;1.10;;;1.30;99.90;;;;;;5155556;27;20104;-71
2024/01/15 03:36:10;;;;;;;1.20;1.10;;;1.30;99.90;;;;;;5136996;27;20035;-74
2024/01/15 03:38:40;;;;;;;1.20;1.10;;;1.30;99.90;;;;;;5155429;27;20083;-72
2024/01/15 03:41:06;;;;;;;1.20;1.10;;;1.30;99.90;;;;;;5155088;27;20501;-71
2024/01/15 03:43:31;;;;;;;1.10;1.00;;;1.30;99.90;;;;;;5155436;27;20039;-71
2024/01/15 03:45:57;;;;;;;1.20;1.10;;;1.30;99.90;;;;;;5155414;27;20034;-71
2024/01/15 03:48:23;;;;;;;1.30;1.20;;;1.20;99.90;;;;;;5155500;27;20478;-73
2024/01/15 03:50:48;;;;;;;1.20;1.10;;;1.20;99.90;;;;;;5155455;27;20043;-71
2024/01/15 03:53:14;;;;;;;1.10;1.00;;;1.20;99.90;;;;;;5155295;27;20359;-71
2024/01/15 03:55:39;;;;;;;1.10;1.00;;;1.20;99.90;;;;;;5155412;27;20089;-71
2024/01/15 03:58:05;;;;;;;1.17;1.08;;;1.20;99.90;;;;;;5155351;27;20046;-71
2024/01/15 04:00:30;;;;;;;1.10;1.00;;;1.20;99.90;;;;;;5155308;27;20095;-71
2024/01/15 04:02:56;;;;;;;1.20;1.10;;;1.20;99.90;;;;;;5159325;27;20045;-71
2024/01/15 04:05:21;;;;;;;1.20;1.10;;;1.20;99.90;;;;;;5159544;27;20111;-71
2024/01/15 04:07:47;;;;;;;1.20;1.10;;;1.20;99.90;;;;;;5159533;27;20065;-70
2024/01/15 04:10:13;;;;;;;1.20;1.10;;;1.20;99.90;;;;;;5159475;27;20064;-72
2024/01/15 04:12:38;;;;;;;1.10;1.00;;;1.30;99.90;;;;;;5159802;27;20043;-71
2024/01/15 04:15:04;;;;;;;1.20;1.10;;;1.30;99.90;;;;;;5140840;27;20122;-73
2024/01/15 04:17:30;;;;;;;1.20;1.10;;;1.30;99.90;;;;;;5159269;27;20046;-71
2024/01/15 04:19:55;;;;;;;1.10;1.00;;;1.40;99.90;;;;;;5159339;27;20043;-73
2024/01/15 04:22:21;;;;;;;1.10;1.00;;;1.40;99.90;;;;;;5159277;27;20462;-72
2024/01/15 04:24:47;;;;;;;1.20;1.10;;;1.40;99.90;;;;;;5158839;27;20035;-71
2024/01/15 04:27:12;;;;;;;1.20;1.10;;;1.40;99.90;;;;;;5159159;27;20050;-71
2024/01/15 04:29:39;;;;;;;1.20;1.10;;;1.40;99.90;;;;;;5159439;27;20062;-71
2024/01/15 04:32:05;;;;;;;1.20;1.10;;;1.30;99.90;;;;;;5159027;27;20039;-71
2024/01/15 04:34:30;;;;;;;0.90;0.90;;;1.30;99.90;;;;;;5159182;27;20509;-71
2024/01/15 04:36:56;;;;;;;1.17;1.08;;;1.30;99.90;;;;;;5158915;27;20043;-70
2024/01/15 04:39:22;;;;;;;1.10;1.00;;;1.30;99.90;;;;;;5158546;27;20045;-70
2024/01/15 04:41:48;;;;;;;1.10;1.00;;;1.30;99.90;;;;;;5159237;27;20047;-71
2024/01/15 04:44:13;;;;;;;1.10;1.00;;;1.30;99.90;;;;;;5158821;27;20050;-71
2024/01/15 04:46:39;;;;;;;1.10;1.00;;;1.30;99.90;;;;;;5158775;27;20051;-71
2024/01/15 04:49:04;;;;;;;1.10;1.00;;;1.30;99.90;;;;;;5158603;27;20489;-71
2024/01/15 04:51:30;;;;;;;1.10;1.00;;;1.30;99.90;;;;;;5158759;27;20055;-71
2024/01/15 04:53:56;;;;;;;1.20;1.10;;;1.20;99.90;;;;;;5158460;27;20077;-70
2024/01/15 04:56:21;;;;;;;1.20;1.10;;;1.30;99.90;;;;;;5158580;27;20430;-70
2024/01/15 04:58:47;;;;;;;1.10;1.00;;;1.20;99.90;;;;;;5158577;27;20495;-70
2024/01/15 05:01:12;;;;;;;1.20;1.10;;;1.20;99.90;;;;;;5159025;27;20034;-70
2024/01/15 05:03:39;;;;;;;1.02;0.95;;;1.30;99.90;;;;;;5158362;27;20137;-71
2024/01/15 05:06:04;;;;;;;1.20;1.10;;;1.30;99.90;;;;;;5158394;27;20118;-71
2024/01/15 05:08:30;;;;;;;1.30;1.20;;;1.30;99.90;;;;;;5158090;27;20117;-73
2024/01/15 05:10:56;;;;;;;1.20;1.10;;;1.40;99.90;;;;;;5158237;27;20039;-73
2024/01/15 05:13:21;;;;;;;1.20;1.10;;;1.30;99.90;;;;;;5157994;27;20091;-70
2024/01/15 05:15:47;;;;;;;1.15;1.05;;;1.40;99.90;;;;;;5158181;27;20074;-71
2024/01/15 05:18:13;;;;;;;1.27;1.17;;;1.40;99.90;;;;;;5158191;27;20091;-71
2024/01/15 05:20:38;;;;;;;1.10;1.00;;;1.40;99.90;;;;;;5158098;27;20435;-71
2024/01/15 05:23:04;;;;;;;1.20;1.10;;;1.40;99.90;;;;;;5158014;27;20039;-70
2024/01/15 05:25:29;;;;;;;1.20;1.10;;;1.40;99.90;;;;;;5157656;27;20474;-71
2024/01/15 05:27:55;;;;;;;1.13;1.02;;;1.40;99.90;;;;;;5157946;27;20052;-71
2024/01/15 05:30:21;;;;;;;1.10;1.00;;;1.40;99.90;;;;;;5157997;27;20039;-72
2024/01/15 05:32:46;;;;;;;1.30;1.20;;;1.30;99.90;;;;;;5157857;27;20382;-71
2024/01/15 05:35:12;;;;;;;1.20;1.10;;;1.30;99.90;;;;;;5157800;27;20122;-70
2024/01/15 05:37:41;;;;;;;1.10;1.00;;;1.30;99.90;;;;;;5139632;27;20075;-71
2024/01/15 05:40:07;;;;;;;1.20;1.10;;;1.20;99.90;;;;;;5157585;27;20050;-71
2024/01/15 05:42:32;;;;;;;1.27;1.17;;;1.20;99.90;;;;;;5158296;27;20039;-71
2024/01/15 05:44:59;;;;;;;1.20;1.10;;;1.20;99.90;;;;;;5157643;27;20043;-73
2024/01/15 05:47:25;;;;;;;1.10;1.00;;;1.10;99.90;;;;;;5157875;27;20043;-71
2024/01/15 05:49:50;;;;;;;3.25;2.95;;;1.10;99.90;;;;;;5157698;27;20435;-70
2024/01/15 05:52:16;;;;;;;1.15;1.05;;;1.20;99.90;;;;;;5157511;27;20039;-71
2024/01/15 05:54:42;;;;;;;1.13;1.02;;;1.10;99.90;;;;;;5157053;27;20043;-71
2024/01/15 05:57:07;;;;;;;1.20;1.10;;;1.10;99.90;;;;;;5157442;27;20034;-71
2024/01/15 05:59:36;;;;;;;1.20;1.10;;;1.10;99.90;;;;;;5138910;27;20402;-71
2024/01/15 06:02:01;;;;;;;1.20;1.10;;;1.10;99.90;;;;;;5157540;27;20095;-72
2024/01/15 06:04:27;;;;;;;1.20;1.10;;;1.10;99.90;;;;;;5157162;27;20042;-71
2024/01/15 06:06:52;;;;;;;1.20;1.10;;;1.10;99.90;;;;;;5157299;27;20130;-70
2024/01/15 06:09:18;;;;;;;1.20;1.10;;;1.10;99.90;;;;;;5157113;27;20083;-78
2024/01/15 06:11:43;;;;;;;1.10;1.00;;;1.10;99.90;;;;;;5157116;27;20047;-70
2024/01/15 06:14:09;;;;;;;1.20;1.10;;;1.10;99.90;;;;;;5157003;27;20042;-71
2024/01/15 06:16:34;;;;;;;1.25;1.15;;;1.10;99.90;;;;;;5157282;27;20050;-71
2024/01/15 06:19:00;;;;;;;1.20;1.10;;;1.10;99.90;;;;;;5157048;27;20485;-72
2024/01/15 06:21:26;;;;;;;1.10;1.00;;;1.10;99.90;;;;;;5156943;27;20035;-73
2024/01/15 06:23:51;;;;;;;1.20;1.10;;;1.00;99.90;;;;;;5155817;27;20039;-73
2024/01/15 06:26:17;;;;;;;1.10;1.00;;;1.00;99.90;;;;;;5156858;27;20125;-74
2024/01/15 06:28:42;;;;;;;1.20;1.10;;;1.00;99.90;;;;;;5156791;27;20083;-73
2024/01/15 06:31:08;;;;;;;1.20;1.10;;;0.90;99.90;;;;;;5156721;27;20111;-73
2024/01/15 06:33:34;;;;;;;1.13;1.02;;;0.90;99.90;;;;;;5156730;27;20054;-70
2024/01/15 06:35:59;;;;;;;1.10;1.00;;;0.90;99.90;;;;;;5156436;27;20070;-74
2024/01/15 06:38:25;;;;;;;1.10;1.00;;;0.90;99.90;;;;;;5156551;27;20047;-70
2024/01/15 06:40:51;;;;;;;1.20;1.10;;;0.80;99.90;;;;;;5156421;27;20489;-72
2024/01/15 06:43:17;;;;;;;1.20;1.10;;;0.80;99.90;;;;;;5156393;27;20043;-75
2024/01/15 06:45:43;;;;;;;1.23;1.13;;;0.80;99.90;;;;;;5156746;27;20039;-71
2024/01/15 06:48:09;;;;;;;2.03;1.93;;;0.80;99.90;;;;;;5156256;27;20063;-75
2024/01/15 06:50:35;;;;;;;1.20;1.10;;;0.80;99.90;;;;;;5156234;27;20054;-73
2024/01/15 06:53:01;;;;;;;1.20;1.10;;;0.90;99.90;;;;;;5156187;27;20047;-71
2024/01/15 06:55:27;;;;;;;1.20;1.10;;;0.80;99.90;;;;;;5156647;27;20042;-73
2024/01/15 06:57:53;;;;;;;1.17;1.08;;;0.80;99.90;;;;;;5156601;27;20051;-74
2024/01/15 07:00:19;;;;;;;1.20;1.10;;;0.80;99.90;;;;;;5156161;27;20064;-73
2024/01/15 07:02:45;;;;;;;1.20;1.10;;;0.80;99.90;;;;;;5156359;27;20078;-73
2024/01/15 07:05:11;;;;;;;1.20;1.10;;;0.80;99.90;;;;;;5156174;27;20038;-73
2024/01/15 07:07:36;;;;;;;1.20;1.10;;;0.80;99.90;;;;;;5155745;27;20367;-70
2024/01/15 07:10:03;;;;;;;1.30;1.20;;;0.80;99.90;;;;;;5155999;27;20043;-70
2024/01/15 07:12:29;;;;;;;1.10;1.00;;;0.80;99.90;;;;;;5156215;27;20512;-72
2024/01/15 07:14:56;;;;;;;1.20;1.10;;;0.70;99.90;;;;;;5155782;27;20087;-73
2024/01/15 07:17:21;;;;;;;1.20;1.10;;;0.70;99.90;;;;;;5155862;27;20047;-71
2024/01/15 07:19:47;;;;;;;1.20;1.10;;;0.70;99.90;;;;;;5156082;27;20039;-73
2024/01/15 07:22:13;;;;;;;1.10;1.00;;;0.80;99.90;;;;;;5155671;27;20489;-70
2024/01/15 07:24:38;;;;;;;1.10;1.00;;;0.90;99.90;;;;;;5155692;27;20074;-72
2024/01/15 07:27:04;;;;;;;1.20;1.10;;;0.80;99.90;;;;;;5155673;27;20047;-80
2024/01/15 07:29:32;;;;;;;1.20;1.10;;;0.80;99.90;;;;;;5155650;27;20042;-76
2024/01/15 07:31:58;;;;;;;1.10;1.00;;;0.80;99.90;;;;;;5120214;27;20673;-78
2024/01/15 07:34:24;;;;;;;1.20;1.10;;;0.80;99.90;;;;;;5155567;27;20125;-72
2024/01/15 07:36:49;;;;;;;1.15;1.05;;;0.80;99.90;;;;;;5155366;27;20034;-71
2024/01/15 07:39:15;;;;;;;1.20;1.10;;;0.90;99.90;;;;;;5155227;27;20084;-72
2024/01/15 07:41:41;;;;;;;1.17;1.08;;;0.90;99.90;;;;;;5155975;27;20038;-75
2024/01/15 07:44:06;;;;;;;1.20;1.10;;;0.90;99.90;;;;;;5137276;27;20537;-79
2024/01/15 07:46:32;;;;;;;1.13;1.02;;;0.90;99.90;;;;;;5155392;27;20034;-73
2024/01/15 07:48:57;;;;;;;1.10;1.00;;;0.80;99.90;;;;;;5155460;27;20094;-72
2024/01/15 07:51:23;;;;;;;1.20;1.10;;;0.80;99.90;;;;;;5155406;27;20038;-77
2024/01/15 07:53:49;;;;;;;1.00;0.95;;;1.80;99.90;;;;;;5155207;27;20039;-73
2024/01/15 07:56:15;;;;;;;1.20;1.10;;;0.80;99.90;;;;;;5155847;27;20047;-75
2024/01/15 07:58:41;;;;;;;1.10;1.00;;;0.80;99.90;;;;;;5155308;27;20125;-73
2024/01/15 08:01:07;;;;;;;1.10;1.00;;;0.80;99.90;;;;;;5155404;27;20034;-74
2024/01/15 08:03:33;;;;;;;1.20;1.10;;;0.80;99.90;;;;;;5136908;27;20066;-72
2024/01/15 08:05:59;;;;;;;1.20;1.10;;;0.70;99.90;;;;;;5155096;27;20478;-75
2024/01/15 08:08:28;;;;;;;1.20;1.10;;;0.70;99.90;;;;;;5155178;27;20039;-74
2024/01/15 08:10:54;;;;;;;1.10;1.00;;;0.70;99.90;;;;;;5155251;27;20389;-73
2024/01/15 08:13:20;;;;;;;1.20;1.10;;;0.70;99.90;;;;;;5155234;27;20122;-74
2024/01/15 08:15:46;;;;;;;1.20;1.10;;;0.70;99.90;;;;;;5155152;27;20079;-75
2024/01/15 08:18:11;;;;;;;1.20;1.10;;;0.70;99.90;;;;;;5155117;27;20038;-73
2024/01/15 08:20:37;;;;;;;1.10;1.00;;;0.70;99.90;;;;;;5155130;27;20046;-72
2024/01/15 08:23:04;;;;;;;1.20;1.10;;;0.70;99.90;;;;;;5155088;27;20062;-70
2024/01/15 08:25:29;;;;;;;1.20;1.10;;;0.70;99.90;;;;;;5155474;27;20148;-72
2024/01/15 08:27:57;;;;;;;1.13;1.02;;;0.70;99.90;;;;;;5155065;27;20129;-71
2024/01/15 08:30:27;;;;;;;1.27;1.17;;;0.60;99.90;;;;;;5136694;27;20053;-71
2024/01/15 08:32:53;;;;;;;1.20;1.10;;;0.60;99.90;;;;;;5155134;27;20402;-72
2024/01/15 08:35:22;;;;;;;1.30;1.20;;;0.60;99.90;;;;;;5155008;27;20039;-72
2024/01/15 08:37:49;;;;;;;1.20;1.10;;;0.60;99.90;;;;;;5154870;27;20516;-71
2024/01/15 08:40:15;;;;;;;1.20;1.10;;;0.60;99.90;;;;;;5136393;27;20486;-73
2024/01/15 08:42:41;;;;;;;1.20;1.10;;;0.60;99.90;;;;;;5154610;27;20572;-72
2024/01/15 08:45:07;;;;;;;1.20;1.10;;;0.60;99.90;;;;;;5154701;27;20122;-71
2024/01/15 08:47:32;;;;;;;1.10;1.00;;;0.70;99.90;;;;;;5156020;27;20039;-70
2024/01/15 08:49:59;;;;;;;1.10;1.00;;;0.70;99.90;;;;;;5158710;27;20047;-71
2024/01/15 08:52:24;;;;;;;1.20;1.10;;;0.70;99.90;;;;;;5158680;27;20071;-71
2024/01/15 08:54:50;;;;;;;1.20;1.10;;;0.90;99.90;;;;;;5158559;27;20042;-71
2024/01/15 08:57:16;;;;;;;1.20;1.10;;;0.80;99.90;;;;;;5158992;27;20050;-74
2024/01/15 08:59:41;;;;;;;1.30;1.20;;;0.80;99.90;;;;;;5158741;27;20072;-73
2024/01/15 09:02:07;;;;;;;1.20;1.10;;;0.80;99.90;;;;;;5158446;27;20390;-75
2024/01/15 09:04:33;;;;;;;1.20;1.10;;;0.80;99.90;;;;;;5158527;27;20115;-73
2024/01/15 09:06:59;;;;;;;1.30;1.20;;;0.90;99.90;;;;;;5158237;27;20386;-72
2024/01/15 09:09:24;;;;;;;1.20;1.10;;;0.90;99.90;;;;;;5158065;27;20042;-75
2024/01/15 09:11:51;;;;;;;1.10;1.00;;;0.90;99.90;;;;;;5158350;27;20034;-75
2024/01/15 09:14:17;;;;;;;1.13;1.02;;;1.00;99.90;;;;;;5158160;27;20497;-77
2024/01/15 09:16:42;;;;;;;1.20;1.10;;;1.00;99.90;;;;;;5158247;27;20042;-76
2024/01/15 09:19:08;;;;;;;1.10;1.00;;;1.10;99.90;;;;;;5158140;27;20043;-74
2024/01/15 09:21:34;;;;;;;1.20;1.10;;;1.10;99.90;;;;;;5157965;27;20439;-75
2024/01/15 09:23:59;;;;;;;1.20;1.10;;;1.10;99.90;;;;;;5157736;27;20127;-78
2024/01/15 09:26:25;;;;;;;1.20;1.10;;;1.20;99.90;;;;;;5158093;27;20102;-74
2024/01/15 09:28:51;;;;;;;1.10;1.00;;;1.20;99.90;;;;;;5157977;27;20427;-76
2024/01/15 09:31:17;;;;;;;1.10;1.00;;;1.20;99.90;;;;;;5158195;27;20090;-74
2024/01/15 09:33:43;;;;;;;1.20;1.10;;;1.30;99.90;;;;;;5139525;27;20047;-75
2024/01/15 09:36:09;;;;;;;1.27;1.17;;;1.30;99.90;;;;;;5157833;27;20050;-75
2024/01/15 09:38:35;;;;;;;1.10;1.00;;;1.30;99.90;;;;;;5158320;27;20042;-80
2024/01/15 09:41:01;;;;;;;1.20;1.10;;;1.60;99.90;;;;;;5157732;27;20043;-74
2024/01/15 09:43:26;;;;;;;1.20;1.10;;;1.50;99.90;;;;;;5158057;27;20466;-75
2024/01/15 09:45:53;;;;;;;1.10;1.00;;;1.50;99.90;;;;;;5157973;27;20525;-75
2024/01/15 09:48:19;;;;;;;1.38;1.27;;;1.60;99.90;;;;;;5157589;27;20050;-87
2024/01/15 09:50:45;;;;;;;1.10;1.00;;;1.80;99.90;;;;;;5157540;27;20042;-73
2024/01/15 09:53:14;;;;;;;1.20;1.10;;;1.70;99.90;;;;;;5157517;27;20039;-74
2024/01/15 09:55:41;;;;;;;1.10;1.00;;;1.70;99.90;;;;;;5157656;27;20042;-78
2024/01/15 09:58:07;;;;;;;1.20;1.10;;;1.70;99.90;;;;;;5157455;27;20050;-80
2024/01/15 10:00:36;;;;;;;1.20;1.10;;;1.70;99.90;;;;;;5157361;27;20513;-81
2024/01/15 10:03:03;;;;;;;1.10;1.00;;;1.70;99.90;;;;;;5157344;27;20510;-75
2024/01/15 10:05:29;;;;;;;1.13;1.02;;;1.80;99.90;;;;;;5157246;27;20039;-75
2024/01/15 10:07:57;;;;;;;1.17;1.08;;;1.70;99.90;;;;;;5157417;27;20053;-84
2024/01/15 10:10:23;;;;;;;1.10;1.00;;;1.80;99.90;;;;;;5157181;27;20099;-73
2024/01/15 10:12:49;;;;;;;1.10;1.00;;;1.80;99.90;;;;;;5157105;27;20038;-81
2024/01/15 10:15:16;;;;;;;1.20;1.10;;;1.80;99.90;;;;;;5157171;27;20105;-75
2024/01/15 10:17:41;;;;;;;1.20;1.10;;;1.80;99.90;;;;;;5157000;27;20038;-89
2024/01/15 10:20:11;;;;;;;1.10;1.00;;;1.90;99.90;;;;;;5121426;27;20038;-82
2024/01/15 10:22:43;;;;;;;1.20;1.10;;;2.00;99.90;;;;;;5156870;27;20042;-79
2024/01/15 10:25:14;;;;;;;1.10;1.00;;;2.00;99.90;;;;;;5156857;27;20058;-75
2024/01/15 10:27:43;;;;;;;2.00;1.90;;;2.10;99.90;;;;;;5157103;27;20043;-76
2024/01/15 10:30:09;;;;;;;1.10;1.00;;;2.10;99.90;;;;;;5156701;27;20047;-82
2024/01/15 10:32:35;;;;;;;1.10;1.00;;;2.20;99.90;;;;;;5155446;27;20431;-76
2024/01/15 10:35:01;;;;;;;1.30;1.20;;;2.20;99.90;;;;;;5147019;27;20043;-75
2024/01/15 10:37:27;;;;;;;1.10;1.00;;;2.20;99.90;;;;;;5135658;27;20039;-80
2024/01/15 10:39:52;;;;;;;1.10;1.00;;;2.20;99.90;;;;;;5135745;27;20039;-77
2024/01/15 10:42:18;;;;;;;1.10;1.00;;;2.20;99.90;;;;;;5135655;27;20088;-75
2024/01/15 10:44:47;;;;;;;1.10;1.00;;;2.20;99.90;;;;;;5135378;27;20039;-76
2024/01/15 10:47:13;;;;;;;1.05;0.95;;;2.30;99.90;;;;;;5135345;27;20445;-75
2024/01/15 10:49:39;;;;;;;1.10;1.00;;;2.30;99.90;;;;;;5135445;27;20112;-76
2024/01/15 10:52:05;;;;;;;1.10;1.00;;;2.30;99.90;;;;;;5135467;27;20043;-77
2024/01/15 10:54:32;;;;;;;0.90;0.90;;;2.30;99.90;;;;;;5135380;27;20050;-74
2024/01/15 10:56:59;;;;;;;1.10;1.00;;;2.30;99.90;;;;;;5135222;27;20130;-77
2024/01/15 10:59:25;;;;;;;1.10;1.00;;;2.30;99.90;;;;;;5117240;27;20082;-77
2024/01/15 11:01:55;;;;;;;1.10;1.00;;;2.30;99.90;;;;;;5099647;27;20039;-79
2024/01/15 11:04:22;;;;;;;1.10;1.00;;;3.10;99.90;;;;;;5135187;27;20083;-79
2024/01/15 11:06:56;;;;;;;1.10;1.00;;;2.30;99.90;;;;;;5135158;27;20051;-78
2024/01/15 11:09:22;;;;;;;1.10;1.00;;;2.30;99.90;;;;;;5135135;27;20075;-72
2024/01/15 11:11:53;;;;;;;1.10;1.00;;;2.30;99.90;;;;;;5134541;27;20108;-74
2024/01/15 11:14:39;;;;;;;1.10;1.00;;;2.30;99.90;;;;;;5134766;27;20058;-76
2024/01/15 11:17:05;;;;;;;1.10;1.00;;;2.30;99.90;;;;;;5134947;27;20051;-76
2024/01/15 11:19:46;;;;;;;1.10;1.00;;;2.30;99.90;;;;;;5134876;27;20391;-75
2024/01/15 11:22:29;;;;;;;1.17;1.08;;;2.40;99.90;;;;;;5134727;27;20039;-74
2024/01/15 11:24:55;;;;;;;1.10;1.00;;;2.40;99.90;;;;;;5134813;27;20047;-79
2024/01/15 11:27:52;;;;;;;1.10;1.00;;;2.40;99.90;;;;;;5134889;27;20134;-79
2024/01/15 11:30:28;;;;;;;1.10;1.00;;;2.50;99.90;;;;;;5141177;27;20035;-73
2024/01/15 11:32:54;;;;;;;1.10;1.00;;;2.60;99.90;;;;;;5137987;27;20043;-70
2024/01/15 11:35:19;;;;;;;1.10;1.00;;;2.50;99.90;;;;;;5151290;27;20035;-74
2024/01/15 11:37:51;;;;;;;0.93;0.90;;;2.50;99.90;;;;;;5145690;27;20066;-72
2024/01/15 11:40:21;;;;;;;1.10;1.00;;;2.60;99.90;;;;;;5155397;27;20043;-73
2024/01/15 11:42:48;;;;;;;1.10;1.00;;;2.50;99.90;;;;;;5155362;27;20039;-73
2024/01/15 11:45:18;;;;;;;4.93;4.43;;;2.50;99.90;;;;;;5154894;27;20069;-73
2024/01/15 11:48:10;;;;;;;0.98;0.98;;;2.50;99.90;;;;;;5153594;27;20121;-81
2024/01/15 11:50:39;;;;;;;1.10;1.00;;;2.50;99.90;;;;;;5136571;27;20146;-75
2024/01/15 11:53:29;;;;;;;0.90;0.90;;;2.50;99.90;;;;;;5155014;27;20130;-83
2024/01/15 11:55:58;;;;;;;1.10;1.00;;;2.50;99.90;;;;;;5154164;27;20559;-80
2024/01/15 11:58:25;;;;;;;1.10;1.00;;;3.50;99.90;;;;;;5154560;27;20101;-79
2024/01/15 12:00:52;;;;;;;1.10;1.00;;;2.50;99.90;;;;;;5141285;27;20071;-79
2024/01/15 12:03:20;;;;;;;0.93;0.93;;;2.60;99.90;;;;;;5134349;28;20078;-79
2024/01/15 12:05:46;;;;;;;1.10;1.00;;;2.60;99.90;;;;;;5134332;28;20084;-80
2024/01/15 12:08:11;;;;;;;1.10;1.00;;;2.60;99.90;;;;;;5134153;28;20078;-82
2024/01/15 12:10:41;;;;;;;1.10;1.00;;;2.60;99.90;;;;;;5134354;28;20103;-78
2024/01/15 12:13:13;;;;;;;1.05;1.00;;;2.60;99.90;;;;;;5134090;28;20091;-78
2024/01/15 12:15:42;;;;;;;1.10;1.00;;;2.50;99.90;;;;;;5134333;28;20046;-74
2024/01/15 12:18:10;;;;;;;1.00;1.00;;;2.40;99.90;;;;;;5134311;28;20055;-77
2024/01/15 12:20:35;;;;;;;1.05;0.95;;;2.30;99.90;;;;;;5134302;28;20058;-79
2024/01/15 12:23:05;;;;;;;1.00;1.00;;;2.20;99.90;;;;;;5136388;27;20478;-79
2024/01/15 12:25:32;;;;;;;1.10;1.00;;;2.20;99.90;;;;;;5137955;27;20043;-76
2024/01/15 12:27:58;;;;;;;1.10;1.00;;;2.20;99.90;;;;;;5138116;27;20047;-72
2024/01/15 12:30:26;;;;;;;1.10;1.00;;;2.10;99.90;;;;;;5138305;27;20039;-73
2024/01/15 12:32:51;;;;;;;1.08;1.00;;;2.10;99.90;;;;;;5137851;27;20513;-72
2024/01/15 12:35:17;;;;;;;1.10;1.00;;;2.00;99.90;;;;;;5138352;27;20075;-73
2024/01/15 12:37:46;;;;;;;0.90;0.90;;;1.90;99.90;;;;;;5138018;27;20050;-73
2024/01/15 12:40:12;;;;;;;1.15;1.05;;;1.80;99.90;;;;;;5137811;27;20043;-79
2024/01/15 12:42:39;;;;;;;1.10;1.00;;;1.80;99.90;;;;;;5137820;27;20039;-77
2024/01/15 12:45:06;;;;;;;1.10;1.00;;;1.70;99.90;;;;;;5137925;27;20361;-80
2024/01/15 12:47:32;;;;;;;1.10;1.00;;;1.70;99.90;;;;;;5137999;27;20047;-81
2024/01/15 12:49:59;;;;;;;1.10;1.00;;;1.60;99.90;;;;;;5137463;27;20047;-80
2024/01/15 12:52:27;;;;;;;1.10;1.00;;;1.60;99.90;;;;;;5137631;27;20131;-78
2024/01/15 12:54:53;;;;;;;1.10;1.00;;;1.60;99.90;;;;;;5137524;27;20416;-79